Terminal Aerodrome Forecast
Issued by NWS

Home | Current Version | Previous Version | Text Only | Print | Product List | Glossary On
Versions: 1 2 3 4 5 6 7 8 9 10 11 12 13 14
000
FTUS42 KGSP 251120
TAFAND
TAF
KAND 251120Z 2512/2612 07003KT P6SM SCT016
      TEMPO 2512/2515 BKN016
     FM251500 13005KT P6SM BKN025
     FM251800 17006KT P6SM BKN045
     FM252100 14007KT P6SM BKN050 PROB30 2521/2603 4SM TSRA BKN040CB
     FM260300 14005KT 5SM BR OVC015 PROB30 2603/2606 2SM TSRA
      OVC015CB
     FM260600 13005KT 5SM BR OVC008=

USA.gov is the U.S. government's official web portal to all federal, state and local government web resources and services.